Time;durP1;ratioP1;P1;durP2;ratioP2;P2;SDS_P1;SDS_P2;PMS_P1;PMS_P2;Temp;Humidity;BMP_temperature;BMP_pressure;BME280_temperature;BME280_humidity;BME280_pressure;Samples;Min_cycle;Max_cycle;Signal;HPM_P1;HPM_P2
2021/08/07 00:04:45;;;;;;;3.73;3.13;;;;;;;14.75;100.00;98319.84;10454299;28;20231;-77
2021/08/07 00:10:07;;;;;;;3.30;3.00;;;;;;;14.63;100.00;98313.13;10455383;28;20533;-77
2021/08/07 00:15:27;;;;;;;5.03;4.73;;;;;;;14.53;100.00;98307.94;10455310;28;20184;-76
2021/08/07 00:20:46;;;;;;;2.90;2.70;;;;;;;14.72;100.00;98306.91;10476778;28;20621;-76
2021/08/07 00:26:05;;;;;;;3.33;3.10;;;;;;;14.71;100.00;98305.34;10496061;28;20705;-76
2021/08/07 00:31:24;;;;;;;2.83;2.63;;;;;;;14.48;100.00;98302.94;10495159;28;20593;-77
2021/08/07 00:36:43;;;;;;;2.90;2.70;;;;;;;14.48;100.00;98291.88;10503900;28;20569;-77
2021/08/07 00:42:02;;;;;;;4.60;3.80;;;;;;;14.42;100.00;98299.94;10503452;28;20233;-77
2021/08/07 00:47:22;;;;;;;4.03;3.60;;;;;;;14.38;100.00;98292.97;10488613;28;20276;-76
2021/08/07 00:52:42;;;;;;;3.30;3.10;;;;;;;14.32;100.00;98278.16;10462309;28;20179;-78
2021/08/07 00:58:01;;;;;;;3.40;3.20;;;;;;;14.36;100.00;98287.88;10461040;28;20179;-76
2021/08/07 01:03:23;;;;;;;3.73;3.43;;;;;;;14.27;100.00;98284.25;10460680;28;20183;-76
2021/08/07 01:08:52;;;;;;;3.33;3.00;;;;;;;14.32;100.00;98280.16;10461593;28;20209;-76
2021/08/07 01:14:13;;;;;;;3.43;3.23;;;;;;;14.18;100.00;98277.81;10461377;28;20183;-77
2021/08/07 01:19:48;;;;;;;7.03;3.27;;;;;;;14.16;100.00;98275.47;10489571;28;20178;-76
2021/08/07 01:25:11;;;;;;;4.07;2.93;;;;;;;14.29;100.00;98278.25;10501211;28;20215;-76
2021/08/07 01:30:30;;;;;;;3.60;2.47;;;;;;;14.26;100.00;98273.59;10502283;28;20213;-76
2021/08/07 01:35:49;;;;;;;4.13;3.60;;;;;;;14.22;100.00;98265.41;10501261;28;20167;-77
2021/08/07 01:41:17;;;;;;;2.57;2.37;;;;;;;14.29;100.00;98273.50;10501106;28;20262;-77
2021/08/07 01:46:56;;;;;;;8.30;2.70;;;;;;;14.20;100.00;98264.31;10493013;28;20224;-76
2021/08/07 01:52:27;;;;;;;3.20;2.17;;;;;;;14.17;100.00;98262.44;10459038;28;20258;-75
2021/08/07 01:57:58;;;;;;;4.50;2.60;;;;;;;14.12;100.00;98258.25;10459635;28;20180;-77
2021/08/07 02:03:19;;;;;;;3.60;2.60;;;;;;;14.07;100.00;98244.16;10458359;28;20176;-76
2021/08/07 02:08:39;;;;;;;5.13;2.40;;;;;;;14.04;100.00;98240.28;10460248;28;20175;-77
2021/08/07 02:13:59;;;;;;;7.10;2.73;;;;;;;14.04;100.00;98242.25;10491471;28;20182;-75
2021/08/07 02:19:19;;;;;;;2.47;2.33;;;;;;;14.00;100.00;98247.91;10498965;28;20198;-76
2021/08/07 02:24:38;;;;;;;3.77;3.47;;;;;;;13.99;100.00;98240.81;10499784;28;20694;-77
2021/08/07 02:29:57;;;;;;;3.40;3.10;;;;;;;14.06;100.00;98248.13;10499809;28;20554;-76
2021/08/07 02:35:17;;;;;;;4.00;3.70;;;;;;;13.94;100.00;98248.88;10498165;28;20254;-76
2021/08/07 02:40:37;;;;;;;3.50;3.20;;;;;;;13.87;100.00;98238.84;10498341;28;20662;-76
2021/08/07 02:45:56;;;;;;;3.13;2.90;;;;;;;13.91;100.00;98236.72;10497462;28;20202;-77
2021/08/07 02:51:15;;;;;;;3.10;2.80;;;;;;;13.88;100.00;98225.78;10499064;28;20167;-75
2021/08/07 02:56:34;;;;;;;3.77;3.47;;;;;;;13.88;100.00;98228.53;10498027;28;20538;-76
2021/08/07 03:01:53;;;;;;;10.10;4.20;;;;;;;13.84;100.00;98219.59;10496287;28;20175;-76
2021/08/07 03:07:12;;;;;;;5.63;3.30;;;;;;;13.92;100.00;98226.44;10465857;28;20272;-77
2021/08/07 03:12:31;;;;;;;3.70;3.37;;;;;;;13.93;100.00;98228.78;10456851;28;20175;-76
2021/08/07 03:17:51;;;;;;;3.23;3.03;;;;;;;13.95;100.00;98226.34;10455494;28;20179;-75
2021/08/07 03:23:10;;;;;;;4.23;3.27;;;;;;;13.84;100.00;98214.06;10456554;28;20180;-76
2021/08/07 03:28:29;;;;;;;3.30;3.10;;;;;;;13.83;100.00;98226.34;10456577;28;20190;-77
2021/08/07 03:33:48;;;;;;;7.33;4.20;;;;;;;13.81;100.00;98215.69;10457167;28;20641;-77
2021/08/07 03:39:07;;;;;;;3.50;3.20;;;;;;;13.86;100.00;98212.41;10497324;28;20230;-77
2021/08/07 03:44:26;;;;;;;4.73;3.60;;;;;;;13.85;100.00;98221.91;10497227;28;20198;-76
2021/08/07 03:49:45;;;;;;;5.47;3.77;;;;;;;13.82;100.00;98225.53;10496145;28;20633;-76
2021/08/07 03:55:04;;;;;;;3.13;2.83;;;;;;;13.83;100.00;98229.09;10496215;28;20167;-77
2021/08/07 04:00:26;;;;;;;3.43;3.23;;;;;;;13.84;100.00;98231.41;10496197;28;20186;-76
2021/08/07 04:05:45;;;;;;;6.73;3.40;;;;;;;13.85;100.00;98221.16;10477196;28;20208;-76
2021/08/07 04:11:04;;;;;;;3.67;3.33;;;;;;;13.89;100.00;98214.25;10463910;28;20628;-77
2021/08/07 04:16:23;;;;;;;3.63;3.33;;;;;;;13.96;100.00;98216.84;10462664;28;20175;-75
2021/08/07 04:21:42;;;;;;;6.73;3.30;;;;;;;13.99;100.00;98213.16;10462451;28;20163;-76
2021/08/07 04:27:01;;;;;;;3.47;3.27;;;;;;;14.02;100.00;98212.28;10462810;28;20218;-77
2021/08/07 04:32:21;;;;;;;4.80;3.40;;;;;;;14.13;100.00;98210.00;10461639;28;20369;-76
2021/08/07 04:37:59;;;;;;;3.80;3.50;;;;;;;14.20;100.00;98207.00;10465825;28;20290;-76
2021/08/07 04:43:17;;;;;;;5.23;3.53;;;;;;;14.33;100.00;98212.53;10461991;28;20220;-75
2021/08/07 04:48:36;;;;;;;3.60;3.37;;;;;;;14.39;100.00;98214.28;10461198;28;20254;-75
2021/08/07 04:53:55;;;;;;;4.33;3.83;;;;;;;14.45;100.00;98218.06;10462345;28;20266;-75
2021/08/07 04:59:14;;;;;;;12.20;4.43;;;;;;;14.52;100.00;98220.59;10462044;28;20171;-76
2021/08/07 05:04:33;;;;;;;4.20;3.90;;;;;;;14.52;100.00;98218.56;10471455;28;20202;-76
2021/08/07 05:09:53;;;;;;;3.80;3.20;;;;;;;14.56;100.00;98204.63;10503040;28;20175;-77
2021/08/07 05:15:12;;;;;;;4.80;3.57;;;;;;;14.62;100.00;98211.91;10501970;28;20618;-77
2021/08/07 05:20:31;;;;;;;5.20;4.20;;;;;;;14.72;100.00;98204.47;10500759;28;20178;-77
2021/08/07 05:25:51;;;;;;;4.50;4.20;;;;;;;14.89;100.00;98206.63;10488949;28;20272;-76
2021/08/07 05:31:09;;;;;;;4.90;4.50;;;;;;;15.03;100.00;98213.66;10469931;28;20179;-75
2021/08/07 05:36:28;;;;;;;5.33;4.37;;;;;;;15.15;100.00;98206.06;10460424;28;20195;-76
2021/08/07 05:41:47;;;;;;;3.70;3.40;;;;;;;15.33;100.00;98202.69;10476766;28;20211;-76
2021/08/07 05:47:07;;;;;;;7.40;4.03;;;;;;;15.50;100.00;98187.41;10489969;28;20673;-76
2021/08/07 05:52:27;;;;;;;4.80;4.37;;;;;;;15.75;100.00;98188.00;10501403;28;20646;-77
2021/08/07 05:57:46;;;;;;;5.33;4.00;;;;;;;15.92;100.00;98188.56;10500103;28;20174;-77
2021/08/07 06:03:05;;;;;;;4.03;3.73;;;;;;;16.12;100.00;98192.50;10499742;28;20178;-76
2021/08/07 06:08:24;;;;;;;6.40;3.40;;;;;;;16.29;100.00;98189.03;10500078;28;20233;-75
2021/08/07 06:13:42;;;;;;;6.60;3.70;;;;;;;16.49;100.00;98175.50;10500533;28;20187;-75
2021/08/07 06:19:01;;;;;;;5.80;3.90;;;;;;;16.56;100.00;98180.75;10480291;28;20219;-75
2021/08/07 06:24:20;;;;;;;5.73;3.97;;;;;;;16.65;100.00;98180.00;10457657;28;20191;-76
2021/08/07 06:29:39;;;;;;;4.83;4.43;;;;;;;16.77;100.00;98179.84;10456662;28;20206;-76
2021/08/07 06:34:58;;;;;;;6.67;4.30;;;;;;;16.89;100.00;98184.50;10457347;28;20171;-76
2021/08/07 06:40:17;;;;;;;4.17;3.87;;;;;;;17.11;100.00;98182.34;10457744;28;20310;-75
2021/08/07 06:45:36;;;;;;;7.87;3.70;;;;;;;17.35;100.00;98183.28;10465568;28;20304;-75
2021/08/07 06:50:56;;;;;;;4.43;4.00;;;;;;;17.65;100.00;98180.28;10481232;28;20179;-75
2021/08/07 06:56:14;;;;;;;3.67;3.27;;;;;;;18.04;100.00;98180.00;10497919;28;20253;-74
2021/08/07 07:01:33;;;;;;;4.30;3.90;;;;;;;18.51;99.53;98194.78;10496523;28;20597;-74
2021/08/07 07:06:52;;;;;;;3.50;3.30;;;;;;;18.93;90.55;98195.44;10497074;28;20653;-75
2021/08/07 07:12:13;;;;;;;3.37;3.07;;;;;;;19.03;92.38;98185.78;10497388;28;20183;-75
2021/08/07 07:17:32;;;;;;;4.70;2.93;;;;;;;19.56;92.27;98180.97;10469793;28;20553;-75
2021/08/07 07:22:51;;;;;;;3.27;2.60;;;;;;;20.06;83.90;98181.34;10455718;28;20179;-75
2021/08/07 07:28:10;;;;;;;5.03;2.50;;;;;;;20.67;83.58;98171.84;10454884;28;20206;-74
2021/08/07 07:33:29;;;;;;;10.60;2.60;;;;;;;20.98;83.12;98167.19;10469541;28;20199;-75
2021/08/07 07:38:48;;;;;;;8.77;2.80;;;;;;;21.26;78.76;98162.69;10487718;28;20233;-76
2021/08/07 07:44:07;;;;;;;6.60;2.87;;;;;;;21.49;81.56;98155.28;10495912;28;20213;-75
2021/08/07 07:49:26;;;;;;;2.43;2.23;;;;;;;21.97;78.75;98138.16;10495154;28;20174;-76
2021/08/07 07:54:45;;;;;;;5.03;2.40;;;;;;;22.19;77.48;98126.38;10478158;28;20190;-76
2021/08/07 08:00:06;;;;;;;2.33;2.07;;;;;;;22.37;74.67;98134.41;10481308;28;20199;-75
2021/08/07 08:05:25;;;;;;;2.33;1.80;;;;;;;22.57;74.44;98112.59;10480381;28;20676;-76
2021/08/07 08:10:44;;;;;;;5.60;2.17;;;;;;;23.27;65.29;98127.41;10497130;28;20211;-75
2021/08/07 08:16:05;;;;;;;2.70;1.70;;;;;;;23.52;62.04;98127.22;10494799;28;20167;-75
2021/08/07 08:21:24;;;;;;;1.80;1.53;;;;;;;23.69;61.62;98134.38;10496835;28;20178;-75
2021/08/07 08:26:43;;;;;;;3.37;1.80;;;;;;;23.20;61.06;98128.69;10496436;28;20202;-74
2021/08/07 08:32:03;;;;;;;2.50;1.53;;;;;;;23.37;62.59;98130.25;10483506;28;20634;-75
2021/08/07 08:37:22;;;;;;;1.97;1.60;;;;;;;23.56;64.22;98122.09;10454236;28;20203;-75
2021/08/07 08:42:42;;;;;;;2.50;1.80;;;;;;;23.59;60.83;98118.28;10453199;28;20234;-78
2021/08/07 08:48:02;;;;;;;4.33;2.03;;;;;;;23.44;60.98;98121.34;10453091;28;20219;-75
2021/08/07 08:53:22;;;;;;;2.17;1.87;;;;;;;23.28;61.17;98112.13;10455358;28;20183;-75
2021/08/07 08:58:41;;;;;;;2.50;1.70;;;;;;;23.18;63.00;98110.84;10462212;28;20183;-76
2021/08/07 09:04:03;;;;;;;3.40;2.00;;;;;;;22.69;64.56;98122.63;10490407;28;20652;-74
2021/08/07 09:09:34;;;;;;;3.43;1.83;;;;;;;21.70;68.94;98133.13;10503286;28;20566;-75
2021/08/07 09:14:53;;;;;;;3.20;2.00;;;;;;;22.04;68.60;98112.53;10503070;28;20166;-75
2021/08/07 09:20:12;;;;;;;2.50;1.90;;;;;;;22.70;65.63;98112.91;10500404;28;20210;-75
2021/08/07 09:25:39;;;;;;;2.23;2.03;;;;;;;23.13;64.21;98105.97;10502319;28;20668;-74
2021/08/07 09:31:05;;;;;;;3.33;2.13;;;;;;;23.28;64.84;98117.72;10495239;28;20183;-76
2021/08/07 09:36:48;;;;;;;2.50;2.00;;;;;;;23.14;65.64;98107.50;10459811;28;20195;-75
2021/08/07 09:42:08;;;;;;;4.47;1.87;;;;;;;22.83;67.41;98116.78;10458784;28;20215;-74
2021/08/07 09:47:27;;;;;;;4.90;2.80;;;;;;;22.90;68.98;98118.38;10458510;28;20634;-75
2021/08/07 09:52:46;;;;;;;2.80;1.97;;;;;;;23.46;66.60;98101.94;10459316;28;20180;-75
2021/08/07 09:58:06;;;;;;;2.40;2.20;;;;;;;23.63;65.73;98094.31;10459661;28;20630;-76
2021/08/07 10:03:28;;;;;;;8.20;2.10;;;;;;;23.65;63.65;98100.19;10469538;28;20540;-76
2021/08/07 10:08:49;;;;;;;4.80;1.93;;;;;;;24.37;61.41;98081.97;10499905;28;20190;-75
2021/08/07 10:14:10;;;;;;;1.83;1.60;;;;;;;25.43;59.21;98072.56;10500780;28;20183;-76
2021/08/07 10:19:31;;;;;;;2.13;1.93;;;;;;;25.24;60.41;98078.06;10499372;28;20182;-76
2021/08/07 10:24:50;;;;;;;2.03;1.70;;;;;;;25.55;62.11;98069.13;10498951;28;20210;-76
2021/08/07 10:30:13;;;;;;;5.60;1.83;;;;;;;26.87;53.88;98062.94;10498299;28;20178;-76
2021/08/07 10:35:32;;;;;;;3.30;1.97;;;;;;;27.09;50.95;98059.84;10497434;28;20199;-76
2021/08/07 10:40:54;;;;;;;3.20;2.23;;;;;;;25.41;54.65;98064.63;10499131;28;20230;-75
2021/08/07 10:46:16;;;;;;;2.70;1.97;;;;;;;25.54;57.50;98073.22;10497681;28;20668;-75
2021/08/07 10:51:40;;;;;;;2.50;2.03;;;;;;;24.59;57.31;98055.84;10498007;28;20572;-75
2021/08/07 10:57:00;;;;;;;2.17;1.90;;;;;;;24.45;57.59;98056.94;10497997;28;20175;-75
2021/08/07 11:02:20;;;;;;;2.40;1.80;;;;;;;24.71;55.03;98048.91;10476682;28;20688;-75
2021/08/07 11:07:39;;;;;;;3.63;2.30;;;;;;;25.10;53.47;98044.63;10456801;28;20207;-75
2021/08/07 11:13:23;;;;;;;3.70;2.47;;;;;;;24.74;54.71;98042.22;10455446;28;20545;-75
2021/08/07 11:18:42;;;;;;;3.70;2.03;;;;;;;24.06;55.64;98047.81;10469412;28;20540;-75
2021/08/07 11:24:01;;;;;;;3.40;2.10;;;;;;;23.60;54.97;98050.38;10464356;28;20189;-76
2021/08/07 11:29:20;;;;;;;5.43;2.53;;;;;;;23.62;55.04;98050.66;10480296;28;20178;-75
2021/08/07 11:34:46;;;;;;;4.00;2.30;;;;;;;23.62;56.25;98041.47;10483746;28;20210;-76
2021/08/07 11:40:06;;;;;;;4.57;1.80;;;;;;;24.42;55.20;98015.75;10456874;28;20219;-75
2021/08/07 11:45:25;;;;;;;3.23;2.70;;;;;;;24.79;52.33;98013.31;10468827;28;20210;-76
2021/08/07 11:50:46;;;;;;;3.30;2.27;;;;;;;24.99;51.89;98019.34;10473881;28;20579;-75
2021/08/07 11:56:07;;;;;;;3.47;2.10;;;;;;;24.83;55.16;98022.25;10486474;28;20265;-75
2021/08/07 12:01:29;;;;;;;4.00;2.47;;;;;;;24.55;52.30;98004.75;10461973;28;20637;-75
2021/08/07 12:06:48;;;;;;;4.47;1.90;;;;;;;24.34;53.87;98001.50;10460466;28;20207;-74
2021/08/07 12:12:07;;;;;;;2.17;1.97;;;;;;;24.61;53.41;97986.56;10492465;28;20644;-75
2021/08/07 12:17:26;;;;;;;3.53;1.93;;;;;;;24.25;54.03;97990.53;10494607;28;20625;-75
2021/08/07 12:22:54;;;;;;;2.40;1.80;;;;;;;23.83;54.46;97976.09;10454316;28;20199;-75
2021/08/07 12:28:16;;;;;;;4.87;1.93;;;;;;;23.83;54.06;97978.13;10455319;28;20203;-75
2021/08/07 12:33:40;;;;;;;6.20;1.93;;;;;;;23.85;54.79;97956.69;10461991;28;20561;-75
2021/08/07 12:39:00;;;;;;;1.80;1.70;;;;;;;23.65;53.70;97944.94;10491285;28;20215;-74
2021/08/07 12:44:21;;;;;;;2.47;1.57;;;;;;;23.89;52.89;97943.16;10504209;28;20770;-75
2021/08/07 12:49:44;;;;;;;3.33;2.30;;;;;;;23.92;51.81;97935.72;10501712;28;20269;-75
2021/08/07 12:55:07;;;;;;;4.70;1.50;;;;;;;23.87;54.39;97945.69;10502750;28;20685;-76
2021/08/07 13:00:29;;;;;;;1.53;1.30;;;;;;;23.71;54.28;97968.94;10502634;28;20190;-75
2021/08/07 13:05:49;;;;;;;3.07;1.37;;;;;;;23.55;55.06;97980.19;10502031;28;20198;-75
2021/08/07 13:11:21;;;;;;;2.57;1.60;;;;;;;23.24;53.72;97985.31;10501413;28;20677;-75
2021/08/07 13:16:46;;;;;;;2.70;1.70;;;;;;;22.81;55.00;97989.56;10500822;28;20171;-75
2021/08/07 13:22:11;;;;;;;2.00;1.57;;;;;;;22.67;57.36;97993.38;10501560;28;20182;-75
2021/08/07 13:27:49;;;;;;;2.63;1.67;;;;;;;22.28;61.26;98000.84;10501168;28;20206;-75
2021/08/07 13:33:08;;;;;;;3.00;2.00;;;;;;;21.72;66.35;98007.44;10487739;28;20198;-75
2021/08/07 13:38:29;;;;;;;3.47;1.70;;;;;;;21.55;68.03;98008.56;10481353;28;20171;-76
2021/08/07 13:43:48;;;;;;;6.57;2.40;;;;;;;20.83;73.50;98031.56;10459278;28;20179;-77
2021/08/07 13:49:08;;;;;;;3.23;2.30;;;;;;;19.45;88.38;98053.22;10464491;28;20253;-77
2021/08/07 13:54:26;;;;;;;3.30;2.27;;;;;;;18.72;99.76;98037.72;10500256;28;20183;-77
2021/08/07 13:59:45;;;;;;;3.53;2.20;;;;;;;18.85;100.00;98029.06;10499946;28;20174;-79
2021/08/07 14:05:05;;;;;;;2.83;2.47;;;;;;;18.51;100.00;98038.06;10499704;28;20675;-77
2021/08/07 14:10:24;;;;;;;3.70;2.40;;;;;;;18.38;100.00;98034.72;10500730;28;20178;-81
2021/08/07 14:15:43;;;;;;;5.73;2.97;;;;;;;18.13;100.00;98056.69;10499741;28;20179;-77
2021/08/07 14:21:02;;;;;;;4.70;2.73;;;;;;;17.94;100.00;98060.84;10500400;28;20175;-80
2021/08/07 14:26:21;;;;;;;5.10;3.10;;;;;;;17.96;100.00;98044.44;10494839;28;20292;-79
2021/08/07 14:31:41;;;;;;;6.80;2.70;;;;;;;18.04;100.00;98059.53;10498820;28;20523;-79
2021/08/07 14:37:00;;;;;;;3.47;2.90;;;;;;;18.18;100.00;98050.47;10499640;28;20194;-79
2021/08/07 14:42:20;;;;;;;5.73;3.43;;;;;;;18.30;100.00;98016.09;10498932;28;20214;-78
2021/08/07 14:47:39;;;;;;;4.30;3.07;;;;;;;18.41;100.00;97986.44;10496458;28;20238;-78
2021/08/07 14:52:58;;;;;;;4.93;3.47;;;;;;;18.39;100.00;97986.16;10492597;28;20175;-77
2021/08/07 14:58:18;;;;;;;5.80;3.30;;;;;;;18.35;100.00;97995.94;10481393;28;20202;-78
2021/08/07 15:03:38;;;;;;;5.30;3.63;;;;;;;18.28;100.00;97994.31;10497433;28;20175;-79
2021/08/07 15:08:57;;;;;;;5.37;3.43;;;;;;;18.26;100.00;98005.16;10496636;28;20248;-80
2021/08/07 15:14:16;;;;;;;4.47;3.23;;;;;;;18.19;100.00;98016.63;10481798;28;20183;-81
2021/08/07 15:19:35;;;;;;;5.33;4.43;;;;;;;18.16;100.00;98031.47;10455786;28;20203;-82
2021/08/07 15:24:55;;;;;;;4.80;3.80;;;;;;;18.19;100.00;98052.81;10477328;28;20206;-81
2021/08/07 15:30:15;;;;;;;4.93;4.57;;;;;;;18.02;100.00;98042.53;10496970;28;20170;-79
2021/08/07 15:35:34;;;;;;;3.90;3.60;;;;;;;18.01;100.00;98060.50;10495412;28;20187;-79
2021/08/07 15:40:54;;;;;;;4.47;3.90;;;;;;;17.91;100.00;98086.84;10497197;28;20222;-80
2021/08/07 15:46:13;;;;;;;9.83;4.33;;;;;;;17.93;100.00;98087.91;10495860;28;20301;-80
2021/08/07 15:51:36;;;;;;;6.60;4.20;;;;;;;17.95;100.00;98109.69;10496570;28;20186;-80
2021/08/07 15:56:58;;;;;;;4.00;3.60;;;;;;;17.96;100.00;98028.53;10456739;28;20175;-82
2021/08/07 16:02:16;;;;;;;4.07;3.73;;;;;;;17.93;100.00;98074.00;10455403;28;20534;-81
2021/08/07 16:07:35;;;;;;;4.00;3.60;;;;;;;17.82;100.00;98045.91;10463826;28;20203;-80
2021/08/07 16:12:54;;;;;;;3.93;3.63;;;;;;;17.96;100.00;98022.19;10464182;28;20171;-82
2021/08/07 16:18:14;;;;;;;3.50;3.30;;;;;;;17.96;100.00;98041.66;10500584;28;20174;-81
2021/08/07 16:23:33;;;;;;;3.83;3.53;;;;;;;18.04;100.00;98031.72;10504825;28;20179;-82
2021/08/07 16:28:53;;;;;;;3.60;3.30;;;;;;;18.02;100.00;98048.09;10503188;28;20210;-81
2021/08/07 16:34:13;;;;;;;3.60;3.30;;;;;;;17.87;100.00;98041.72;10503134;28;20594;-82
2021/08/07 16:39:32;;;;;;;3.63;3.10;;;;;;;17.88;100.00;98046.81;10504217;28;20226;-80
2021/08/07 16:44:52;;;;;;;3.20;3.00;;;;;;;17.81;100.00;98021.34;10501162;28;20684;-80
2021/08/07 16:50:11;;;;;;;4.70;3.10;;;;;;;17.94;100.00;98031.00;10463511;28;20187;-81
2021/08/07 16:55:30;;;;;;;5.00;2.90;;;;;;;17.94;100.00;98041.34;10462344;28;20183;-79
2021/08/07 17:00:49;;;;;;;3.90;3.30;;;;;;;17.88;100.00;98009.84;10473210;28;20171;-78
2021/08/07 17:06:09;;;;;;;3.63;2.93;;;;;;;17.98;100.00;98030.81;10502822;28;20214;-78
2021/08/07 17:11:28;;;;;;;3.97;2.80;;;;;;;18.01;100.00;98041.03;10503062;28;20216;-80
2021/08/07 17:16:47;;;;;;;3.00;2.80;;;;;;;17.94;100.00;98058.03;10500709;28;20179;-79
2021/08/07 17:22:07;;;;;;;3.53;3.23;;;;;;;18.10;100.00;98041.72;10502666;28;20625;-79
2021/08/07 17:27:26;;;;;;;4.00;2.73;;;;;;;18.08;100.00;98035.09;10501145;28;20624;-80
2021/08/07 17:32:45;;;;;;;2.97;2.77;;;;;;;17.89;100.00;98042.75;10480554;28;20211;-79
2021/08/07 17:38:04;;;;;;;3.43;2.83;;;;;;;17.88;100.00;98030.13;10460767;28;20176;-79
2021/08/07 17:43:23;;;;;;;6.50;2.70;;;;;;;17.63;100.00;98040.91;10459591;28;20586;-80
2021/08/07 17:48:42;;;;;;;2.97;2.70;;;;;;;17.64;100.00;98039.66;10463335;28;20302;-79
2021/08/07 17:54:01;;;;;;;3.30;2.97;;;;;;;17.71;100.00;98056.78;10479757;28;20653;-81
2021/08/07 17:59:20;;;;;;;2.80;2.60;;;;;;;17.63;100.00;98052.03;10459658;28;20187;-80
2021/08/07 18:04:39;;;;;;;3.60;2.60;;;;;;;17.72;100.00;98041.66;10468867;28;20206;-81
2021/08/07 18:09:58;;;;;;;2.80;2.60;;;;;;;17.74;100.00;98041.16;10480475;28;20187;-82
2021/08/07 18:15:18;;;;;;;4.43;2.40;;;;;;;17.94;100.00;98055.25;10498942;28;20565;-80
2021/08/07 18:20:37;;;;;;;4.93;2.43;;;;;;;18.03;100.00;98049.66;10477844;28;20175;-82
2021/08/07 18:25:56;;;;;;;3.77;2.53;;;;;;;17.75;100.00;98056.63;10471815;28;20206;-82
2021/08/07 18:31:16;;;;;;;4.13;2.47;;;;;;;17.68;100.00;98068.09;10461240;28;20270;-79
2021/08/07 18:36:35;;;;;;;1.87;1.73;;;;;;;17.62;100.00;98070.75;10475430;28;20175;-83
2021/08/07 18:41:55;;;;;;;3.87;3.37;;;;;;;17.51;100.00;98075.28;10498577;28;20223;-82
2021/08/07 18:47:14;;;;;;;4.20;2.70;;;;;;;17.29;100.00;98076.72;10497625;28;20206;-82
2021/08/07 18:52:33;;;;;;;4.50;2.67;;;;;;;17.23;100.00;98084.88;10486717;28;20191;-82
2021/08/07 18:57:52;;;;;;;2.43;2.23;;;;;;;17.11;100.00;98096.97;10498654;28;20213;-83
2021/08/07 19:03:11;;;;;;;4.03;2.30;;;;;;;17.04;100.00;98113.19;10496452;28;20179;-83
2021/08/07 19:08:30;;;;;;;4.27;2.53;;;;;;;16.93;100.00;98113.66;10497591;28;20610;-85
2021/08/07 19:13:50;;;;;;;4.63;2.80;;;;;;;16.83;100.00;98120.44;10498100;28;20171;-81
2021/08/07 19:19:09;;;;;;;2.80;2.60;;;;;;;16.81;100.00;98117.38;10455247;28;20187;-85
2021/08/07 19:24:28;;;;;;;7.40;2.60;;;;;;;16.61;100.00;98134.97;10456354;28;20665;-82
2021/08/07 19:29:47;;;;;;;4.23;2.47;;;;;;;16.53;100.00;98144.81;10456025;28;20617;-84
2021/08/07 19:35:07;;;;;;;2.90;2.37;;;;;;;16.46;100.00;98153.44;10454863;28;20211;-82
2021/08/07 19:40:26;;;;;;;2.70;2.27;;;;;;;16.47;100.00;98161.31;10454310;28;20227;-81
2021/08/07 19:45:45;;;;;;;4.60;3.07;;;;;;;16.43;100.00;98162.69;10455065;28;20211;-81
2021/08/07 19:51:04;;;;;;;8.33;2.80;;;;;;;16.41;100.00;98154.03;10456107;28;20171;-82
2021/08/07 19:56:29;;;;;;;5.70;2.10;;;;;;;16.48;100.00;98137.09;10455859;28;20652;-81
2021/08/07 20:01:48;;;;;;;2.57;2.10;;;;;;;16.41;100.00;98149.28;10454589;28;20183;-81
2021/08/07 20:07:07;;;;;;;3.57;1.90;;;;;;;16.46;100.00;98153.44;10455239;28;20207;-82
2021/08/07 20:12:26;;;;;;;2.20;1.80;;;;;;;16.38;100.00;98161.28;10478105;28;20556;-84
2021/08/07 20:17:45;;;;;;;3.97;2.50;;;;;;;16.23;100.00;98159.53;10494770;28;20258;-80
2021/08/07 20:23:04;;;;;;;3.73;2.50;;;;;;;16.30;100.00;98156.50;10496763;28;20174;-81
2021/08/07 20:28:23;;;;;;;7.23;2.50;;;;;;;16.37;100.00;98161.75;10496145;28;20203;-82
2021/08/07 20:33:43;;;;;;;4.80;2.80;;;;;;;16.44;100.00;98167.00;10494135;28;20236;-81
2021/08/07 20:39:04;;;;;;;2.80;2.33;;;;;;;16.33;100.00;98159.13;10495919;28;20226;-82
2021/08/07 20:44:23;;;;;;;7.73;2.43;;;;;;;16.43;100.00;98154.38;10496237;28;20186;-82
2021/08/07 20:49:43;;;;;;;2.93;2.00;;;;;;;16.51;100.00;98156.41;10496306;28;20621;-84
2021/08/07 20:55:03;;;;;;;2.47;2.27;;;;;;;16.46;100.00;98165.31;10503770;28;20206;-84
2021/08/07 21:00:22;;;;;;;4.20;2.10;;;;;;;16.34;100.00;98173.78;10503648;28;20171;-82
2021/08/07 21:05:41;;;;;;;3.73;2.30;;;;;;;16.26;100.00;98186.34;10485328;28;20677;-82
2021/08/07 21:11:00;;;;;;;2.70;2.50;;;;;;;16.18;100.00;98190.66;10461985;28;20176;-84
2021/08/07 21:16:20;;;;;;;2.87;2.00;;;;;;;16.09;100.00;98194.19;10460528;28;20171;-83
2021/08/07 21:21:39;;;;;;;2.57;2.37;;;;;;;16.06;100.00;98208.19;10461544;28;20536;-80
2021/08/07 21:26:58;;;;;;;3.20;2.17;;;;;;;15.95;100.00;98207.06;10461023;28;20248;-84
2021/08/07 21:32:18;;;;;;;2.73;2.53;;;;;;;15.89;100.00;98217.97;10458760;28;20586;-81
2021/08/07 21:37:37;;;;;;;2.77;2.57;;;;;;;15.82;100.00;98229.34;10493004;28;20183;-81
2021/08/07 21:42:56;;;;;;;5.73;3.50;;;;;;;15.77;100.00;98227.16;10501356;28;20218;-82
2021/08/07 21:48:15;;;;;;;15.87;3.20;;;;;;;15.69;100.00;98234.19;10478383;28;20673;-83
2021/08/07 21:53:34;;;;;;;7.60;2.63;;;;;;;15.62;100.00;98251.09;10459272;28;20191;-83
2021/08/07 21:58:53;;;;;;;10.10;3.30;;;;;;;15.59;100.00;98254.00;10460117;28;20184;-82
2021/08/07 22:04:12;;;;;;;12.03;3.33;;;;;;;15.53;100.00;98256.56;10461054;28;20194;-82
2021/08/07 22:09:30;;;;;;;3.10;2.90;;;;;;;15.58;100.00;98264.31;10501088;28;20191;-81
2021/08/07 22:14:50;;;;;;;5.30;2.77;;;;;;;15.66;100.00;98251.75;10500738;28;20214;-83
2021/08/07 22:20:10;;;;;;;9.10;3.00;;;;;;;15.65;100.00;98252.97;10499265;28;20208;-82
2021/08/07 22:25:29;;;;;;;3.37;2.63;;;;;;;15.68;100.00;98245.75;10500048;28;20210;-84
2021/08/07 22:30:49;;;;;;;9.60;2.57;;;;;;;15.59;100.00;98243.66;10497997;28;20721;-84
2021/08/07 22:36:09;;;;;;;3.83;2.50;;;;;;;15.56;100.00;98258.44;10480264;28;20618;-83
2021/08/07 22:41:28;;;;;;;4.13;2.90;;;;;;;15.56;100.00;98243.78;10457914;28;20314;-81
2021/08/07 22:46:47;;;;;;;6.70;3.50;;;;;;;15.49;100.00;98247.63;10456612;28;20293;-81
2021/08/07 22:52:06;;;;;;;2.50;2.30;;;;;;;15.43;100.00;98260.50;10457959;28;20198;-84
2021/08/07 22:57:24;;;;;;;3.53;3.20;;;;;;;15.42;100.00;98274.81;10457919;28;20242;-81
2021/08/07 23:02:43;;;;;;;19.53;2.90;;;;;;;15.39;100.00;98270.94;10456278;28;20183;-81
2021/08/07 23:08:03;;;;;;;7.43;2.93;;;;;;;15.42;100.00;98272.84;10494187;28;20578;-82
2021/08/07 23:13:22;;;;;;;6.00;2.80;;;;;;;15.44;100.00;98270.38;10497762;28;20182;-83
2021/08/07 23:18:41;;;;;;;4.10;2.90;;;;;;;15.45;100.00;98277.47;10496969;28;20182;-83
2021/08/07 23:24:00;;;;;;;5.33;2.33;;;;;;;15.42;100.00;98281.16;10498241;28;20202;-83
2021/08/07 23:29:19;;;;;;;5.03;2.80;;;;;;;15.31;100.00;98280.75;10496990;28;20625;-84
2021/08/07 23:34:38;;;;;;;5.00;2.90;;;;;;;15.21;100.00;98281.09;10487358;28;20187;-83
2021/08/07 23:39:56;;;;;;;4.20;2.70;;;;;;;15.21;100.00;98281.09;10464117;28;20219;-84
2021/08/07 23:45:15;;;;;;;6.17;2.93;;;;;;;15.14;100.00;98281.34;10456091;28;20211;-83
2021/08/07 23:50:34;;;;;;;7.30;2.40;;;;;;;15.06;100.00;98295.88;10453768;28;20175;-84
2021/08/07 23:55:53;;;;;;;5.50;2.67;;;;;;;14.98;100.00;98286.25;10455934;28;20618;-84
